sensor_id;sensor_type;location;lat;lon;timestamp;temperature;humidity
38241;DHT22;24037;49.536;8.500;2022-12-18T00:03:52;-7.80;52.10
38241;DHT22;24037;49.536;8.500;2022-12-18T00:06:19;-7.80;51.80
38241;DHT22;24037;49.536;8.500;2022-12-18T00:08:46;-7.90;48.50
38241;DHT22;24037;49.536;8.500;2022-12-18T00:11:16;-7.90;46.50
38241;DHT22;24037;49.536;8.500;2022-12-18T00:13:42;-7.90;46.00
38241;DHT22;24037;49.536;8.500;2022-12-18T00:16:11;-7.90;44.30
38241;DHT22;24037;49.536;8.500;2022-12-18T00:18:37;-7.90;44.90
38241;DHT22;24037;49.536;8.500;2022-12-18T00:21:06;-7.90;47.10
38241;DHT22;24037;49.536;8.500;2022-12-18T00:23:33;-7.90;49.50
38241;DHT22;24037;49.536;8.500;2022-12-18T00:26:02;-7.90;52.60
38241;DHT22;24037;49.536;8.500;2022-12-18T00:28:30;-7.90;54.40
38241;DHT22;24037;49.536;8.500;2022-12-18T00:31:06;-7.90;55.10
38241;DHT22;24037;49.536;8.500;2022-12-18T00:33:33;-7.80;56.80
38241;DHT22;24037;49.536;8.500;2022-12-18T00:36:04;-7.80;57.60
38241;DHT22;24037;49.536;8.500;2022-12-18T00:38:32;-7.70;59.10
38241;DHT22;24037;49.536;8.500;2022-12-18T00:40:58;-7.70;58.40
38241;DHT22;24037;49.536;8.500;2022-12-18T00:43:25;-7.70;57.60
38241;DHT22;24037;49.536;8.500;2022-12-18T00:45:52;-7.80;56.90
38241;DHT22;24037;49.536;8.500;2022-12-18T00:48:18;-7.80;57.10
38241;DHT22;24037;49.536;8.500;2022-12-18T00:50:45;-7.80;56.10
38241;DHT22;24037;49.536;8.500;2022-12-18T00:53:11;-7.80;54.90
38241;DHT22;24037;49.536;8.500;2022-12-18T00:55:39;-7.80;54.80
38241;DHT22;24037;49.536;8.500;2022-12-18T00:58:05;-7.80;53.90
38241;DHT22;24037;49.536;8.500;2022-12-18T01:00:31;-7.80;53.30
38241;DHT22;24037;49.536;8.500;2022-12-18T01:02:58;-7.70;52.40
38241;DHT22;24037;49.536;8.500;2022-12-18T01:05:24;-7.90;52.20
38241;DHT22;24037;49.536;8.500;2022-12-18T01:07:51;-7.90;52.80
38241;DHT22;24037;49.536;8.500;2022-12-18T01:10:17;-7.90;53.20
38241;DHT22;24037;49.536;8.500;2022-12-18T01:12:43;-7.90;54.20
38241;DHT22;24037;49.536;8.500;2022-12-18T01:15:12;-7.90;54.10
38241;DHT22;24037;49.536;8.500;2022-12-18T01:17:38;-7.80;54.70
38241;DHT22;24037;49.536;8.500;2022-12-18T01:20:04;-7.90;54.40
38241;DHT22;24037;49.536;8.500;2022-12-18T01:22:32;-7.90;55.00
38241;DHT22;24037;49.536;8.500;2022-12-18T01:24:59;-7.90;55.00
38241;DHT22;24037;49.536;8.500;2022-12-18T01:27:26;-8.00;55.60
38241;DHT22;24037;49.536;8.500;2022-12-18T01:29:52;-7.90;57.40
38241;DHT22;24037;49.536;8.500;2022-12-18T01:32:19;-7.90;58.10
38241;DHT22;24037;49.536;8.500;2022-12-18T01:34:45;-7.90;59.10
38241;DHT22;24037;49.536;8.500;2022-12-18T01:37:12;-7.90;58.50
38241;DHT22;24037;49.536;8.500;2022-12-18T01:39:38;-7.90;58.70
38241;DHT22;24037;49.536;8.500;2022-12-18T01:42:13;-7.90;57.90
38241;DHT22;24037;49.536;8.500;2022-12-18T01:49:51;-8.00;52.60
38241;DHT22;24037;49.536;8.500;2022-12-18T01:52:18;-8.00;52.10
38241;DHT22;24037;49.536;8.500;2022-12-18T01:54:47;-8.00;53.20
38241;DHT22;24037;49.536;8.500;2022-12-18T01:57:14;-8.00;53.40
38241;DHT22;24037;49.536;8.500;2022-12-18T01:59:42;-8.00;53.60
38241;DHT22;24037;49.536;8.500;2022-12-18T02:02:10;-8.00;53.70
38241;DHT22;24037;49.536;8.500;2022-12-18T02:04:36;-8.00;53.60
38241;DHT22;24037;49.536;8.500;2022-12-18T02:10:13;-8.10;53.40
38241;DHT22;24037;49.536;8.500;2022-12-18T02:13:09;-8.20;53.60
38241;DHT22;24037;49.536;8.500;2022-12-18T02:15:49;-8.20;53.70
38241;DHT22;24037;49.536;8.500;2022-12-18T02:18:30;-8.10;53.50
38241;DHT22;24037;49.536;8.500;2022-12-18T02:27:07;-8.20;50.10
38241;DHT22;24037;49.536;8.500;2022-12-18T02:29:39;-8.30;48.90
38241;DHT22;24037;49.536;8.500;2022-12-18T02:32:09;-8.30;46.20
38241;DHT22;24037;49.536;8.500;2022-12-18T02:34:39;-8.40;45.20
38241;DHT22;24037;49.536;8.500;2022-12-18T02:37:12;-8.40;43.40
38241;DHT22;24037;49.536;8.500;2022-12-18T02:39:41;-8.50;41.10
38241;DHT22;24037;49.536;8.500;2022-12-18T02:42:10;-8.50;40.80
38241;DHT22;24037;49.536;8.500;2022-12-18T02:44:49;-8.50;41.30
38241;DHT22;24037;49.536;8.500;2022-12-18T02:47:23;-8.50;42.80
38241;DHT22;24037;49.536;8.500;2022-12-18T02:49:56;-8.50;45.20
38241;DHT22;24037;49.536;8.500;2022-12-18T02:55:33;-8.40;47.10
38241;DHT22;24037;49.536;8.500;2022-12-18T03:03:42;-8.50;47.50
38241;DHT22;24037;49.536;8.500;2022-12-18T03:06:58;-8.50;46.50
38241;DHT22;24037;49.536;8.500;2022-12-18T03:09:09;-8.40;46.50
38241;DHT22;24037;49.536;8.500;2022-12-18T03:11:40;-8.50;43.00
38241;DHT22;24037;49.536;8.500;2022-12-18T03:14:29;-8.50;41.40
38241;DHT22;24037;49.536;8.500;2022-12-18T03:17:02;-8.50;42.50
38241;DHT22;24037;49.536;8.500;2022-12-18T03:19:32;-8.50;42.60
38241;DHT22;24037;49.536;8.500;2022-12-18T03:22:02;-8.40;42.50
38241;DHT22;24037;49.536;8.500;2022-12-18T03:24:37;-8.40;42.50
38241;DHT22;24037;49.536;8.500;2022-12-18T03:27:10;-8.40;42.10
38241;DHT22;24037;49.536;8.500;2022-12-18T03:29:45;-8.40;38.70
38241;DHT22;24037;49.536;8.500;2022-12-18T03:32:54;-8.50;38.70
38241;DHT22;24037;49.536;8.500;2022-12-18T03:35:28;-8.40;38.60
38241;DHT22;24037;49.536;8.500;2022-12-18T03:37:56;-8.40;38.50
38241;DHT22;24037;49.536;8.500;2022-12-18T03:40:33;-8.40;37.60
38241;DHT22;24037;49.536;8.500;2022-12-18T03:43:12;-8.40;38.30
38241;DHT22;24037;49.536;8.500;2022-12-18T03:45:53;-8.30;38.90
38241;DHT22;24037;49.536;8.500;2022-12-18T03:51:09;-8.30;38.90
38241;DHT22;24037;49.536;8.500;2022-12-18T03:53:57;-8.30;36.10
38241;DHT22;24037;49.536;8.500;2022-12-18T03:56:32;-8.40;34.90
38241;DHT22;24037;49.536;8.500;2022-12-18T03:59:01;-8.50;36.60
38241;DHT22;24037;49.536;8.500;2022-12-18T04:01:35;-8.50;38.60
38241;DHT22;24037;49.536;8.500;2022-12-18T04:04:04;-8.40;40.20
38241;DHT22;24037;49.536;8.500;2022-12-18T04:06:35;-8.20;42.10
38241;DHT22;24037;49.536;8.500;2022-12-18T04:09:02;-8.30;42.30
38241;DHT22;24037;49.536;8.500;2022-12-18T04:11:32;-8.20;43.10
38241;DHT22;24037;49.536;8.500;2022-12-18T04:14:01;-8.20;43.70
38241;DHT22;24037;49.536;8.500;2022-12-18T04:16:28;-8.20;44.80
38241;DHT22;24037;49.536;8.500;2022-12-18T04:18:59;-8.20;46.20
38241;DHT22;24037;49.536;8.500;2022-12-18T04:21:27;-8.30;47.30
38241;DHT22;24037;49.536;8.500;2022-12-18T04:23:53;-8.30;49.40
38241;DHT22;24037;49.536;8.500;2022-12-18T04:26:22;-8.30;52.50
38241;DHT22;24037;49.536;8.500;2022-12-18T04:29:01;-8.30;53.20
38241;DHT22;24037;49.536;8.500;2022-12-18T04:31:28;-8.20;53.80
38241;DHT22;24037;49.536;8.500;2022-12-18T04:33:55;-8.20;53.70
38241;DHT22;24037;49.536;8.500;2022-12-18T04:36:22;-8.10;53.60
38241;DHT22;24037;49.536;8.500;2022-12-18T04:38:48;-8.10;55.00
38241;DHT22;24037;49.536;8.500;2022-12-18T04:41:16;-8.10;56.30
38241;DHT22;24037;49.536;8.500;2022-12-18T04:43:45;-8.00;56.10
38241;DHT22;24037;49.536;8.500;2022-12-18T04:46:11;-8.10;54.40
38241;DHT22;24037;49.536;8.500;2022-12-18T04:48:38;-8.10;52.60
38241;DHT22;24037;49.536;8.500;2022-12-18T04:51:05;-8.10;52.10
38241;DHT22;24037;49.536;8.500;2022-12-18T04:53:32;-8.10;50.70
38241;DHT22;24037;49.536;8.500;2022-12-18T04:56:10;-8.20;50.10
38241;DHT22;24037;49.536;8.500;2022-12-18T04:58:38;-8.20;49.60
38241;DHT22;24037;49.536;8.500;2022-12-18T05:01:05;-8.20;48.40
38241;DHT22;24037;49.536;8.500;2022-12-18T05:03:31;-8.10;47.90
38241;DHT22;24037;49.536;8.500;2022-12-18T05:05:57;-8.10;47.20
38241;DHT22;24037;49.536;8.500;2022-12-18T05:08:24;-8.10;47.60
38241;DHT22;24037;49.536;8.500;2022-12-18T05:10:57;-8.10;47.90
38241;DHT22;24037;49.536;8.500;2022-12-18T05:13:23;-8.00;48.30
38241;DHT22;24037;49.536;8.500;2022-12-18T05:15:53;-7.90;49.90
38241;DHT22;24037;49.536;8.500;2022-12-18T05:18:19;-7.90;51.10
38241;DHT22;24037;49.536;8.500;2022-12-18T05:20:45;-7.80;51.40
38241;DHT22;24037;49.536;8.500;2022-12-18T05:23:12;-7.80;52.40
38241;DHT22;24037;49.536;8.500;2022-12-18T05:25:38;-7.80;53.40
38241;DHT22;24037;49.536;8.500;2022-12-18T05:28:04;-7.90;55.00
38241;DHT22;24037;49.536;8.500;2022-12-18T05:30:30;-7.90;56.90
38241;DHT22;24037;49.536;8.500;2022-12-18T05:32:56;-7.80;57.70
38241;DHT22;24037;49.536;8.500;2022-12-18T05:35:22;-7.80;58.10
38241;DHT22;24037;49.536;8.500;2022-12-18T05:37:49;-7.80;58.50
38241;DHT22;24037;49.536;8.500;2022-12-18T05:40:15;-7.80;58.10
38241;DHT22;24037;49.536;8.500;2022-12-18T05:42:41;-7.80;55.30
38241;DHT22;24037;49.536;8.500;2022-12-18T05:45:08;-7.80;53.20
38241;DHT22;24037;49.536;8.500;2022-12-18T05:47:34;-7.80;51.50
38241;DHT22;24037;49.536;8.500;2022-12-18T05:50:00;-7.80;50.20
38241;DHT22;24037;49.536;8.500;2022-12-18T05:52:26;-7.80;49.60
38241;DHT22;24037;49.536;8.500;2022-12-18T05:54:52;-7.80;49.70
38241;DHT22;24037;49.536;8.500;2022-12-18T05:57:19;-7.80;48.90
38241;DHT22;24037;49.536;8.500;2022-12-18T05:59:45;-7.80;47.80
38241;DHT22;24037;49.536;8.500;2022-12-18T06:02:12;-7.80;46.10
38241;DHT22;24037;49.536;8.500;2022-12-18T06:04:38;-7.80;45.40
38241;DHT22;24037;49.536;8.500;2022-12-18T06:07:04;-7.90;45.10
38241;DHT22;24037;49.536;8.500;2022-12-18T06:09:30;-7.90;44.30
38241;DHT22;24037;49.536;8.500;2022-12-18T06:11:56;-7.90;43.40
38241;DHT22;24037;49.536;8.500;2022-12-18T06:14:22;-7.80;43.40
38241;DHT22;24037;49.536;8.500;2022-12-18T06:16:50;-7.80;43.20
38241;DHT22;24037;49.536;8.500;2022-12-18T06:19:18;-7.80;42.70
38241;DHT22;24037;49.536;8.500;2022-12-18T06:21:44;-7.80;42.20
38241;DHT22;24037;49.536;8.500;2022-12-18T06:24:10;-7.70;42.00
38241;DHT22;24037;49.536;8.500;2022-12-18T06:26:38;-7.70;42.30
38241;DHT22;24037;49.536;8.500;2022-12-18T06:29:05;-7.70;41.70
38241;DHT22;24037;49.536;8.500;2022-12-18T06:31:31;-7.70;41.40
38241;DHT22;24037;49.536;8.500;2022-12-18T06:33:58;-7.70;41.80
38241;DHT22;24037;49.536;8.500;2022-12-18T06:36:24;-7.60;41.90
38241;DHT22;24037;49.536;8.500;2022-12-18T06:38:50;-7.60;41.30
38241;DHT22;24037;49.536;8.500;2022-12-18T06:41:19;-7.60;40.90
38241;DHT22;24037;49.536;8.500;2022-12-18T06:43:45;-7.60;39.00
38241;DHT22;24037;49.536;8.500;2022-12-18T06:46:12;-7.80;37.60
38241;DHT22;24037;49.536;8.500;2022-12-18T06:48:38;-7.80;37.00
38241;DHT22;24037;49.536;8.500;2022-12-18T06:51:05;-7.80;35.50
38241;DHT22;24037;49.536;8.500;2022-12-18T06:53:32;-7.80;34.20
38241;DHT22;24037;49.536;8.500;2022-12-18T06:56:06;-7.90;32.10
38241;DHT22;24037;49.536;8.500;2022-12-18T06:58:33;-7.90;31.20
38241;DHT22;24037;49.536;8.500;2022-12-18T07:01:03;-7.90;31.30
38241;DHT22;24037;49.536;8.500;2022-12-18T07:03:30;-7.90;30.30
38241;DHT22;24037;49.536;8.500;2022-12-18T07:05:56;-7.90;31.00
38241;DHT22;24037;49.536;8.500;2022-12-18T07:08:22;-7.90;31.40
38241;DHT22;24037;49.536;8.500;2022-12-18T07:10:49;-7.80;31.40
38241;DHT22;24037;49.536;8.500;2022-12-18T07:13:16;-7.80;31.70
38241;DHT22;24037;49.536;8.500;2022-12-18T07:15:43;-7.90;30.20
38241;DHT22;24037;49.536;8.500;2022-12-18T07:18:09;-7.90;28.80
38241;DHT22;24037;49.536;8.500;2022-12-18T07:20:36;-7.90;28.30
38241;DHT22;24037;49.536;8.500;2022-12-18T07:23:03;-8.00;28.60
38241;DHT22;24037;49.536;8.500;2022-12-18T07:25:29;-8.00;28.40
38241;DHT22;24037;49.536;8.500;2022-12-18T07:27:55;-8.00;28.40
38241;DHT22;24037;49.536;8.500;2022-12-18T07:30:22;-8.00;28.60
38241;DHT22;24037;49.536;8.500;2022-12-18T07:32:48;-8.00;28.70
38241;DHT22;24037;49.536;8.500;2022-12-18T07:35:14;-8.10;27.60
38241;DHT22;24037;49.536;8.500;2022-12-18T07:37:40;-8.10;27.80
38241;DHT22;24037;49.536;8.500;2022-12-18T07:40:07;-8.10;28.30
38241;DHT22;24037;49.536;8.500;2022-12-18T07:42:33;-8.10;27.90
38241;DHT22;24037;49.536;8.500;2022-12-18T07:45:01;-8.20;27.90
38241;DHT22;24037;49.536;8.500;2022-12-18T07:47:28;-8.20;27.60
38241;DHT22;24037;49.536;8.500;2022-12-18T07:49:57;-8.20;28.30
38241;DHT22;24037;49.536;8.500;2022-12-18T07:52:23;-8.20;29.40
38241;DHT22;24037;49.536;8.500;2022-12-18T07:54:49;-8.20;29.50
38241;DHT22;24037;49.536;8.500;2022-12-18T07:57:16;-8.20;29.90
38241;DHT22;24037;49.536;8.500;2022-12-18T07:59:43;-8.20;30.50
38241;DHT22;24037;49.536;8.500;2022-12-18T08:02:09;-8.20;30.80
38241;DHT22;24037;49.536;8.500;2022-12-18T08:04:35;-8.20;31.20
38241;DHT22;24037;49.536;8.500;2022-12-18T08:07:01;-8.10;31.30
38241;DHT22;24037;49.536;8.500;2022-12-18T08:09:28;-8.10;30.70
38241;DHT22;24037;49.536;8.500;2022-12-18T08:11:54;-8.10;30.00
38241;DHT22;24037;49.536;8.500;2022-12-18T08:14:20;-8.10;30.00
38241;DHT22;24037;49.536;8.500;2022-12-18T08:16:46;-8.10;30.10
38241;DHT22;24037;49.536;8.500;2022-12-18T08:19:12;-8.00;29.50
38241;DHT22;24037;49.536;8.500;2022-12-18T08:21:41;-8.00;28.80
38241;DHT22;24037;49.536;8.500;2022-12-18T08:24:09;-8.10;26.90
38241;DHT22;24037;49.536;8.500;2022-12-18T08:26:35;-8.10;26.10
38241;DHT22;24037;49.536;8.500;2022-12-18T08:29:01;-8.10;25.30
38241;DHT22;24037;49.536;8.500;2022-12-18T08:31:29;-8.10;25.10
38241;DHT22;24037;49.536;8.500;2022-12-18T08:33:56;-8.00;26.50
38241;DHT22;24037;49.536;8.500;2022-12-18T08:36:23;-7.90;27.70
38241;DHT22;24037;49.536;8.500;2022-12-18T08:38:50;-7.80;27.30
38241;DHT22;24037;49.536;8.500;2022-12-18T08:41:17;-7.70;27.60
38241;DHT22;24037;49.536;8.500;2022-12-18T08:43:44;-7.80;27.20
38241;DHT22;24037;49.536;8.500;2022-12-18T08:46:37;-7.70;26.20
38241;DHT22;24037;49.536;8.500;2022-12-18T08:49:04;-7.70;24.40
38241;DHT22;24037;49.536;8.500;2022-12-18T08:51:31;-7.70;23.00
38241;DHT22;24037;49.536;8.500;2022-12-18T08:53:57;-7.70;20.90
38241;DHT22;24037;49.536;8.500;2022-12-18T08:56:23;-7.70;20.80
38241;DHT22;24037;49.536;8.500;2022-12-18T08:58:54;-7.70;18.70
38241;DHT22;24037;49.536;8.500;2022-12-18T09:01:21;-7.70;17.30
38241;DHT22;24037;49.536;8.500;2022-12-18T09:03:50;-7.60;17.20
38241;DHT22;24037;49.536;8.500;2022-12-18T09:06:21;-7.50;16.60
38241;DHT22;24037;49.536;8.500;2022-12-18T09:08:47;-7.50;14.90
38241;DHT22;24037;49.536;8.500;2022-12-18T09:11:20;-7.50;14.10
38241;DHT22;24037;49.536;8.500;2022-12-18T09:13:46;-7.50;14.80
38241;DHT22;24037;49.536;8.500;2022-12-18T09:16:12;-7.30;17.20
38241;DHT22;24037;49.536;8.500;2022-12-18T09:18:39;-7.20;17.60
38241;DHT22;24037;49.536;8.500;2022-12-18T09:21:17;-7.20;16.10
38241;DHT22;24037;49.536;8.500;2022-12-18T09:23:43;-7.20;16.30
38241;DHT22;24037;49.536;8.500;2022-12-18T09:26:09;-7.10;15.40
38241;DHT22;24037;49.536;8.500;2022-12-18T09:28:36;-7.00;16.30
38241;DHT22;24037;49.536;8.500;2022-12-18T09:31:06;-6.90;18.20
38241;DHT22;24037;49.536;8.500;2022-12-18T09:33:34;-6.80;18.70
38241;DHT22;24037;49.536;8.500;2022-12-18T09:36:03;-6.70;17.90
38241;DHT22;24037;49.536;8.500;2022-12-18T09:38:29;-6.70;14.50
38241;DHT22;24037;49.536;8.500;2022-12-18T09:41:04;-6.70;11.80
38241;DHT22;24037;49.536;8.500;2022-12-18T09:46:07;-6.70;9.70
38241;DHT22;24037;49.536;8.500;2022-12-18T09:48:38;-6.70;11.20
38241;DHT22;24037;49.536;8.500;2022-12-18T09:51:13;-6.60;12.10
38241;DHT22;24037;49.536;8.500;2022-12-18T09:53:44;-6.60;11.50
38241;DHT22;24037;49.536;8.500;2022-12-18T09:56:19;-6.50;11.30
38241;DHT22;24037;49.536;8.500;2022-12-18T09:59:02;-6.40;12.00
38241;DHT22;24037;49.536;8.500;2022-12-18T10:01:31;-6.30;11.40
38241;DHT22;24037;49.536;8.500;2022-12-18T10:03:57;-6.30;10.00
38241;DHT22;24037;49.536;8.500;2022-12-18T10:06:38;-6.30;9.70
38241;DHT22;24037;49.536;8.500;2022-12-18T10:09:34;-6.30;7.30
38241;DHT22;24037;49.536;8.500;2022-12-18T10:12:24;-6.30;5.70
38241;DHT22;24037;49.536;8.500;2022-12-18T10:15:07;-6.10;8.20
38241;DHT22;24037;49.536;8.500;2022-12-18T10:20:41;-6.10;3.70
38241;DHT22;24037;49.536;8.500;2022-12-18T10:25:39;-6.00;3.30
38241;DHT22;24037;49.536;8.500;2022-12-18T10:28:07;-5.90;5.70
38241;DHT22;24037;49.536;8.500;2022-12-18T10:30:35;-6.00;3.30
38241;DHT22;24037;49.536;8.500;2022-12-18T10:33:02;-5.90;4.20
38241;DHT22;24037;49.536;8.500;2022-12-18T10:35:28;-5.80;5.80
38241;DHT22;24037;49.536;8.500;2022-12-18T10:40:29;-5.80;1.00
38241;DHT22;24037;49.536;8.500;2022-12-18T10:43:05;-5.90;1.00
38241;DHT22;24037;49.536;8.500;2022-12-18T10:45:32;-6.00;1.00
38241;DHT22;24037;49.536;8.500;2022-12-18T10:47:58;-6.00;1.00
38241;DHT22;24037;49.536;8.500;2022-12-18T10:52:54;-6.00;1.00
38241;DHT22;24037;49.536;8.500;2022-12-18T10:55:20;-5.80;1.50
38241;DHT22;24037;49.536;8.500;2022-12-18T10:57:47;-5.90;1.00
38241;DHT22;24037;49.536;8.500;2022-12-18T11:00:20;-5.80;1.00
38241;DHT22;24037;49.536;8.500;2022-12-18T11:02:47;-5.70;1.00
38241;DHT22;24037;49.536;8.500;2022-12-18T11:07:54;-5.60;1.00
38241;DHT22;24037;49.536;8.500;2022-12-18T11:10:21;-5.30;1.00
38241;DHT22;24037;49.536;8.500;2022-12-18T11:12:48;-5.20;1.00
38241;DHT22;24037;49.536;8.500;2022-12-18T11:15:19;-5.10;1.00
38241;DHT22;24037;49.536;8.500;2022-12-18T11:17:46;-5.10;1.00
38241;DHT22;24037;49.536;8.500;2022-12-18T11:20:32;-5.00;1.00
38241;DHT22;24037;49.536;8.500;2022-12-18T11:23:00;-5.00;1.00
38241;DHT22;24037;49.536;8.500;2022-12-18T11:25:27;-5.10;1.00
38241;DHT22;24037;49.536;8.500;2022-12-18T11:27:56;-5.10;1.00
38241;DHT22;24037;49.536;8.500;2022-12-18T11:30:25;-5.00;1.00
38241;DHT22;24037;49.536;8.500;2022-12-18T11:32:53;-4.90;1.00
38241;DHT22;24037;49.536;8.500;2022-12-18T11:35:32;-4.90;1.00
38241;DHT22;24037;49.536;8.500;2022-12-18T11:38:00;-4.90;1.00
38241;DHT22;24037;49.536;8.500;2022-12-18T11:40:30;-4.80;1.00
38241;DHT22;24037;49.536;8.500;2022-12-18T11:45:48;-4.90;1.00
38241;DHT22;24037;49.536;8.500;2022-12-18T11:48:18;-5.10;1.00
38241;DHT22;24037;49.536;8.500;2022-12-18T11:53:13;-5.10;1.00
38241;DHT22;24037;49.536;8.500;2022-12-18T12:03:49;-4.70;1.00
38241;DHT22;24037;49.536;8.500;2022-12-18T12:09:01;-4.70;1.00
38241;DHT22;24037;49.536;8.500;2022-12-18T12:17:02;-4.60;1.00
38241;DHT22;24037;49.536;8.500;2022-12-18T12:19:47;-4.60;1.00
38241;DHT22;24037;49.536;8.500;2022-12-18T12:25:09;-4.50;1.00
38241;DHT22;24037;49.536;8.500;2022-12-18T12:30:16;-4.50;1.00
38241;DHT22;24037;49.536;8.500;2022-12-18T12:33:09;-4.40;1.00
38241;DHT22;24037;49.536;8.500;2022-12-18T12:35:45;-4.30;1.00
38241;DHT22;24037;49.536;8.500;2022-12-18T12:38:13;-4.40;1.00
38241;DHT22;24037;49.536;8.500;2022-12-18T12:40:44;-4.40;1.00
38241;DHT22;24037;49.536;8.500;2022-12-18T12:43:22;-4.40;1.00
38241;DHT22;24037;49.536;8.500;2022-12-18T12:46:00;-4.20;1.00
38241;DHT22;24037;49.536;8.500;2022-12-18T12:48:33;-4.10;1.00
38241;DHT22;24037;49.536;8.500;2022-12-18T12:51:01;-4.00;1.00
38241;DHT22;24037;49.536;8.500;2022-12-18T12:53:30;-4.10;1.00
38241;DHT22;24037;49.536;8.500;2022-12-18T12:55:58;-4.10;1.00
38241;DHT22;24037;49.536;8.500;2022-12-18T13:00:56;-4.10;1.00
38241;DHT22;24037;49.536;8.500;2022-12-18T13:05:56;-4.20;1.00
38241;DHT22;24037;49.536;8.500;2022-12-18T13:08:26;-4.20;1.00
38241;DHT22;24037;49.536;8.500;2022-12-18T13:10:52;-4.10;1.00
38241;DHT22;24037;49.536;8.500;2022-12-18T13:13:49;-4.10;1.00
38241;DHT22;24037;49.536;8.500;2022-12-18T13:16:17;-4.00;1.00
38241;DHT22;24037;49.536;8.500;2022-12-18T13:18:56;-4.10;1.00
38241;DHT22;24037;49.536;8.500;2022-12-18T13:21:26;-4.00;1.00
38241;DHT22;24037;49.536;8.500;2022-12-18T13:23:53;-3.90;1.00
38241;DHT22;24037;49.536;8.500;2022-12-18T13:31:15;-3.80;1.00
38241;DHT22;24037;49.536;8.500;2022-12-18T13:34:16;-3.80;1.00
38241;DHT22;24037;49.536;8.500;2022-12-18T13:36:43;-3.80;1.00
38241;DHT22;24037;49.536;8.500;2022-12-18T13:41:41;-3.90;1.00
38241;DHT22;24037;49.536;8.500;2022-12-18T13:44:11;-3.90;1.00
38241;DHT22;24037;49.536;8.500;2022-12-18T13:51:57;-3.90;1.00
38241;DHT22;24037;49.536;8.500;2022-12-18T13:56:49;-3.90;1.00
38241;DHT22;24037;49.536;8.500;2022-12-18T13:59:17;-3.90;1.00
38241;DHT22;24037;49.536;8.500;2022-12-18T14:01:44;-4.00;1.00
38241;DHT22;24037;49.536;8.500;2022-12-18T14:04:20;-4.00;1.00
38241;DHT22;24037;49.536;8.500;2022-12-18T14:06:47;-3.90;1.00
38241;DHT22;24037;49.536;8.500;2022-12-18T14:09:15;-4.00;1.00
38241;DHT22;24037;49.536;8.500;2022-12-18T14:11:47;-3.90;1.00
38241;DHT22;24037;49.536;8.500;2022-12-18T14:14:15;-3.90;1.00
38241;DHT22;24037;49.536;8.500;2022-12-18T14:16:41;-3.90;1.00
38241;DHT22;24037;49.536;8.500;2022-12-18T14:19:10;-3.90;1.00
38241;DHT22;24037;49.536;8.500;2022-12-18T14:21:37;-3.90;1.00
38241;DHT22;24037;49.536;8.500;2022-12-18T14:26:30;-4.00;1.00
38241;DHT22;24037;49.536;8.500;2022-12-18T14:28:58;-4.00;1.00
38241;DHT22;24037;49.536;8.500;2022-12-18T14:31:25;-4.00;1.00
38241;DHT22;24037;49.536;8.500;2022-12-18T14:33:51;-4.00;1.00
38241;DHT22;24037;49.536;8.500;2022-12-18T14:36:19;-4.00;2.30
38241;DHT22;24037;49.536;8.500;2022-12-18T14:38:50;-4.00;4.00
38241;DHT22;24037;49.536;8.500;2022-12-18T14:41:16;-4.00;5.70
38241;DHT22;24037;49.536;8.500;2022-12-18T14:43:43;-4.10;7.10
38241;DHT22;24037;49.536;8.500;2022-12-18T14:48:51;-4.20;10.00
38241;DHT22;24037;49.536;8.500;2022-12-18T14:51:20;-4.20;12.50
38241;DHT22;24037;49.536;8.500;2022-12-18T14:53:48;-4.20;15.30
38241;DHT22;24037;49.536;8.500;2022-12-18T14:56:28;-4.20;16.60
38241;DHT22;24037;49.536;8.500;2022-12-18T14:58:55;-4.30;18.10
38241;DHT22;24037;49.536;8.500;2022-12-18T15:01:32;-4.30;20.60
38241;DHT22;24037;49.536;8.500;2022-12-18T15:03:59;-4.40;22.20
38241;DHT22;24037;49.536;8.500;2022-12-18T15:06:30;-4.40;24.40
38241;DHT22;24037;49.536;8.500;2022-12-18T15:08:58;-4.40;26.00
38241;DHT22;24037;49.536;8.500;2022-12-18T15:16:50;-4.60;29.40
38241;DHT22;24037;49.536;8.500;2022-12-18T15:19:17;-4.60;32.80
38241;DHT22;24037;49.536;8.500;2022-12-18T15:21:43;-4.60;33.70
38241;DHT22;24037;49.536;8.500;2022-12-18T15:24:16;-4.60;34.40
38241;DHT22;24037;49.536;8.500;2022-12-18T15:26:42;-4.60;35.00
38241;DHT22;24037;49.536;8.500;2022-12-18T15:29:16;-4.70;36.40
38241;DHT22;24037;49.536;8.500;2022-12-18T15:31:44;-4.70;37.40
38241;DHT22;24037;49.536;8.500;2022-12-18T15:34:18;-4.80;37.70
38241;DHT22;24037;49.536;8.500;2022-12-18T15:36:46;-4.80;38.00
38241;DHT22;24037;49.536;8.500;2022-12-18T15:39:12;-4.80;38.20
38241;DHT22;24037;49.536;8.500;2022-12-18T15:41:38;-4.80;38.30
38241;DHT22;24037;49.536;8.500;2022-12-18T15:44:21;-4.90;37.60
38241;DHT22;24037;49.536;8.500;2022-12-18T15:46:47;-4.90;37.10
38241;DHT22;24037;49.536;8.500;2022-12-18T15:49:13;-4.90;36.10
38241;DHT22;24037;49.536;8.500;2022-12-18T15:51:39;-5.00;35.40
38241;DHT22;24037;49.536;8.500;2022-12-18T15:54:06;-5.00;35.60
38241;DHT22;24037;49.536;8.500;2022-12-18T15:56:34;-5.10;35.60
38241;DHT22;24037;49.536;8.500;2022-12-18T15:59:20;-5.10;35.60
38241;DHT22;24037;49.536;8.500;2022-12-18T16:01:47;-5.20;36.70
38241;DHT22;24037;49.536;8.500;2022-12-18T16:04:14;-5.10;37.00
38241;DHT22;24037;49.536;8.500;2022-12-18T16:06:41;-5.20;36.50
38241;DHT22;24037;49.536;8.500;2022-12-18T16:09:07;-5.20;36.70
38241;DHT22;24037;49.536;8.500;2022-12-18T16:11:34;-5.20;36.80
38241;DHT22;24037;49.536;8.500;2022-12-18T16:16:50;-5.20;36.70
38241;DHT22;24037;49.536;8.500;2022-12-18T16:19:16;-5.20;36.60
38241;DHT22;24037;49.536;8.500;2022-12-18T16:21:42;-5.20;36.00
38241;DHT22;24037;49.536;8.500;2022-12-18T16:24:15;-5.30;35.60
38241;DHT22;24037;49.536;8.500;2022-12-18T16:26:42;-5.20;35.80
38241;DHT22;24037;49.536;8.500;2022-12-18T16:29:08;-5.30;35.50
38241;DHT22;24037;49.536;8.500;2022-12-18T16:31:34;-5.30;34.60
38241;DHT22;24037;49.536;8.500;2022-12-18T16:34:13;-5.30;34.30
38241;DHT22;24037;49.536;8.500;2022-12-18T16:36:41;-5.30;34.60
38241;DHT22;24037;49.536;8.500;2022-12-18T16:39:07;-5.30;34.70
38241;DHT22;24037;49.536;8.500;2022-12-18T16:41:33;-5.30;34.20
38241;DHT22;24037;49.536;8.500;2022-12-18T16:43:59;-5.40;32.90
38241;DHT22;24037;49.536;8.500;2022-12-18T16:46:25;-5.40;33.30
38241;DHT22;24037;49.536;8.500;2022-12-18T16:48:51;-5.30;33.00
38241;DHT22;24037;49.536;8.500;2022-12-18T16:51:17;-5.30;31.90
38241;DHT22;24037;49.536;8.500;2022-12-18T16:53:43;-5.40;32.10
38241;DHT22;24037;49.536;8.500;2022-12-18T16:56:09;-5.40;32.30
38241;DHT22;24037;49.536;8.500;2022-12-18T16:58:35;-5.40;32.60
38241;DHT22;24037;49.536;8.500;2022-12-18T17:01:06;-5.40;31.00
38241;DHT22;24037;49.536;8.500;2022-12-18T17:03:32;-5.40;30.80
38241;DHT22;24037;49.536;8.500;2022-12-18T17:06:05;-5.40;29.80
38241;DHT22;24037;49.536;8.500;2022-12-18T17:08:31;-5.30;29.80
38241;DHT22;24037;49.536;8.500;2022-12-18T17:11:04;-5.30;29.60
38241;DHT22;24037;49.536;8.500;2022-12-18T17:13:31;-5.30;29.00
38241;DHT22;24037;49.536;8.500;2022-12-18T17:16:04;-5.30;28.80
38241;DHT22;24037;49.536;8.500;2022-12-18T17:18:31;-5.20;28.50
38241;DHT22;24037;49.536;8.500;2022-12-18T17:21:01;-5.20;28.30
38241;DHT22;24037;49.536;8.500;2022-12-18T17:23:27;-5.20;28.50
38241;DHT22;24037;49.536;8.500;2022-12-18T17:25:54;-5.10;27.20
38241;DHT22;24037;49.536;8.500;2022-12-18T17:28:22;-5.20;26.30
38241;DHT22;24037;49.536;8.500;2022-12-18T17:30:48;-5.20;24.80
38241;DHT22;24037;49.536;8.500;2022-12-18T17:33:14;-5.20;23.50